createdAt,value
2019-06-08T00:01:31.476Z,100163.42
2019-06-08T00:04:00.105Z,100161.34
2019-06-08T00:06:29.149Z,100169.11
2019-06-08T00:08:58.905Z,100162.80
2019-06-08T00:11:30.991Z,100159.94
2019-06-08T00:13:59.632Z,100167.33
2019-06-08T00:16:28.299Z,100164.34
2019-06-08T00:18:57.197Z,100167.82
2019-06-08T00:21:27.086Z,100168.61
2019-06-08T00:23:58.925Z,100179.27
2019-06-08T00:26:27.589Z,100180.91
2019-06-08T00:28:56.334Z,100173.25
2019-06-08T00:31:25.102Z,100174.62
2019-06-08T00:33:56.669Z,100179.53
2019-06-08T00:36:25.314Z,100188.84
2019-06-08T00:38:55.258Z,100185.71
2019-06-08T00:41:25.281Z,100180.52
2019-06-08T00:43:57.511Z,100177.23
2019-06-08T00:46:27.535Z,100171.38
2019-06-08T00:48:59.342Z,100172.42
2019-06-08T00:51:29.702Z,100173.57
2019-06-08T00:53:58.504Z,100175.60
2019-06-08T00:56:27.208Z,100191.55
2019-06-08T00:58:55.836Z,100185.37
2019-06-08T01:01:26.407Z,100192.78
2019-06-08T01:03:55.089Z,100193.34
2019-06-08T01:06:25.605Z,100188.73
2019-06-08T01:08:54.329Z,100211.50
2019-06-08T01:11:23.019Z,100204.09
2019-06-08T01:13:51.611Z,100211.27
2019-06-08T01:16:27.045Z,100208.31
2019-06-08T01:18:59.122Z,100208.27
2019-06-08T01:21:27.867Z,100213.81
2019-06-08T01:23:56.486Z,100208.91
2019-06-08T01:26:31.207Z,100210.63
2019-06-08T01:29:03.079Z,100210.37
2019-06-08T01:31:31.752Z,100214.20
2019-06-08T01:34:06.738Z,100220.11
2019-06-08T01:36:35.419Z,100211.46
2019-06-08T01:39:07.812Z,100209.22
2019-06-08T01:41:36.514Z,100206.30
2019-06-08T01:44:05.438Z,100212.99
2019-06-08T01:46:36.821Z,100206.89
2019-06-08T01:49:06.468Z,100218.05
2019-06-08T01:51:37.891Z,100215.66
2019-06-08T01:54:06.625Z,100217.26
2019-06-08T01:56:35.531Z,100213.29
2019-06-08T01:59:05.763Z,100221.22
2019-06-08T02:01:36.152Z,100228.00
2019-06-08T02:04:04.889Z,100216.95
2019-06-08T02:06:34.904Z,100222.74
2019-06-08T02:09:03.891Z,100218.27
2019-06-08T02:11:34.888Z,100219.75
2019-06-08T02:14:03.892Z,100218.47
2019-06-08T02:16:33.357Z,100219.78
2019-06-08T02:19:02.034Z,100223.02
2019-06-08T02:21:30.904Z,100224.98
2019-06-08T02:23:59.589Z,100233.11
2019-06-08T02:26:30.950Z,100224.42
2019-06-08T02:29:00.056Z,100221.82
2019-06-08T02:31:32.869Z,100229.12
2019-06-08T02:34:02.678Z,100225.84
2019-06-08T02:36:38.034Z,100231.77
2019-06-08T02:39:07.563Z,100242.88
2019-06-08T02:41:40.028Z,100237.45
2019-06-08T02:44:08.894Z,100233.93
2019-06-08T02:46:40.826Z,100231.47
2019-06-08T02:49:09.539Z,100239.27
2019-06-08T02:51:38.474Z,100245.91
2019-06-08T02:54:07.250Z,100245.02
2019-06-08T02:56:39.317Z,100253.64
2019-06-08T02:59:08.285Z,100246.92
2019-06-08T03:01:40.968Z,100251.80
2019-06-08T03:04:09.684Z,100250.98
2019-06-08T03:06:40.903Z,100261.50
2019-06-08T03:09:09.079Z,100257.48
2019-06-08T03:11:41.414Z,100260.71
2019-06-08T03:14:10.134Z,100263.67
2019-06-08T03:16:41.488Z,100269.40
2019-06-08T03:19:21.711Z,100280.00
2019-06-08T03:21:42.407Z,100274.27
2019-06-08T03:24:14.053Z,100291.37
2019-06-08T03:26:44.161Z,100289.53
2019-06-08T03:29:13.285Z,100288.95
2019-06-08T03:31:51.233Z,100293.12
2019-06-08T03:34:12.378Z,100290.40
2019-06-08T03:36:54.099Z,100299.80
2019-06-08T03:39:17.476Z,100298.02
2019-06-08T03:41:46.148Z,100300.09
2019-06-08T03:44:14.796Z,100309.25
2019-06-08T03:46:45.932Z,100312.91
2019-06-08T03:49:16.691Z,100310.40
2019-06-08T03:51:49.026Z,100309.05
2019-06-08T03:54:20.650Z,100324.16
2019-06-08T03:59:36.073Z,100321.03
2019-06-08T04:02:04.897Z,100321.45
2019-06-08T04:04:33.571Z,100325.70
2019-06-08T04:07:02.494Z,100328.00
2019-06-08T04:09:31.116Z,100325.13
2019-06-08T04:12:02.577Z,100322.07
2019-06-08T04:14:31.274Z,100328.34
2019-06-08T04:16:59.935Z,100316.92
2019-06-08T04:19:28.626Z,100323.86
2019-06-08T04:22:00.588Z,100339.30
2019-06-08T04:24:29.231Z,100331.34
2019-06-08T04:27:01.085Z,100329.75
2019-06-08T04:29:29.736Z,100337.30
2019-06-08T04:31:58.646Z,100335.02
2019-06-08T04:34:27.400Z,100333.93
2019-06-08T04:36:57.426Z,100338.27
2019-06-08T04:39:26.355Z,100342.97
2019-06-08T04:41:56.524Z,100340.62
2019-06-08T04:44:25.529Z,100347.80
2019-06-08T04:46:54.239Z,100354.41
2019-06-08T04:49:24.391Z,100357.19
2019-06-08T04:51:54.429Z,100390.00
2019-06-08T04:54:23.990Z,100384.17
2019-06-08T04:56:52.679Z,100380.36
2019-06-08T04:59:21.453Z,100382.50
2019-06-08T05:01:51.295Z,100377.95
2019-06-08T05:04:19.956Z,100377.89
2019-06-08T05:06:49.815Z,100374.11
2019-06-08T05:09:21.700Z,100375.72
2019-06-08T05:11:51.713Z,100376.64
2019-06-08T05:14:21.494Z,100391.94
2019-06-08T05:16:50.238Z,100388.16
2019-06-08T05:19:18.943Z,100399.30
2019-06-08T05:21:50.033Z,100395.33
2019-06-08T05:24:20.224Z,100395.17
2019-06-08T05:26:52.597Z,100400.64
2019-06-08T05:29:21.296Z,100418.48
2019-06-08T05:31:49.988Z,100406.70
2019-06-08T05:34:19.759Z,100396.75
2019-06-08T05:36:49.778Z,100403.46
2019-06-08T05:39:18.947Z,100399.78
2019-06-08T05:41:49.808Z,100413.51
2019-06-08T05:44:19.580Z,100400.53
2019-06-08T05:46:50.000Z,100413.13
2019-06-08T05:49:20.522Z,100416.45
2019-06-08T05:51:50.111Z,100414.74
2019-06-08T05:54:20.629Z,100404.50
2019-06-08T05:56:50.622Z,100427.16
2019-06-08T05:59:20.402Z,100427.97
2019-06-08T06:01:51.001Z,100421.22
2019-06-08T06:04:21.250Z,100430.66
2019-06-08T06:06:53.154Z,100430.14
2019-06-08T06:09:22.329Z,100441.73
2019-06-08T06:11:51.255Z,100447.84
2019-06-08T06:14:21.666Z,100444.58
2019-06-08T06:16:51.302Z,100444.47
2019-06-08T06:19:20.061Z,100455.00
2019-06-08T06:21:51.691Z,100458.64
2019-06-08T06:24:21.705Z,100456.95
2019-06-08T06:26:51.685Z,100472.86
2019-06-08T06:29:20.525Z,100471.65
2019-06-08T06:31:49.779Z,100475.06
2019-06-08T06:34:18.591Z,100472.74
2019-06-08T06:36:50.090Z,100484.44
2019-06-08T06:39:21.562Z,100502.23
2019-06-08T06:41:50.199Z,100497.34
2019-06-08T06:44:21.196Z,100507.78
2019-06-08T06:46:52.732Z,100511.78
2019-06-08T06:49:21.369Z,100515.13
2019-06-08T06:51:50.552Z,100530.58
2019-06-08T06:54:25.649Z,100528.22
2019-06-08T06:56:54.387Z,100519.16
2019-06-08T06:59:23.135Z,100538.16
2019-06-08T07:01:55.784Z,100532.24
2019-06-08T07:04:22.391Z,100544.12
2019-06-08T07:06:52.238Z,100555.66
2019-06-08T07:09:20.888Z,100550.95
2019-06-08T07:11:57.611Z,100559.35
2019-06-08T07:14:29.170Z,100564.76
2019-06-08T07:16:58.267Z,100563.97
2019-06-08T07:19:29.882Z,100568.61
2019-06-08T07:21:58.634Z,100581.28
2019-06-08T07:24:29.267Z,100574.42
2019-06-08T07:26:58.789Z,100586.70
2019-06-08T07:29:27.573Z,100584.55
2019-06-08T07:31:56.209Z,100585.48
2019-06-08T07:34:24.876Z,100589.09
2019-06-08T07:36:55.547Z,100601.72
2019-06-08T07:39:28.690Z,100602.80
2019-06-08T07:41:57.601Z,100601.50
2019-06-08T07:44:32.425Z,100610.03
2019-06-08T07:47:01.149Z,100606.59
2019-06-08T07:49:29.765Z,100619.52
2019-06-08T07:52:09.452Z,100618.56
2019-06-08T07:54:30.673Z,100631.44
2019-06-08T07:56:59.621Z,100626.56
2019-06-08T07:59:28.251Z,100629.74
2019-06-08T08:01:58.330Z,100634.57
2019-06-08T08:04:27.203Z,100632.10
2019-06-08T08:06:56.708Z,100638.16
2019-06-08T08:09:26.807Z,100652.83
2019-06-08T08:11:55.468Z,100650.40
2019-06-08T08:14:24.474Z,100652.32
2019-06-08T08:16:53.263Z,100651.06
2019-06-08T08:19:22.690Z,100650.45
2019-06-08T08:22:03.124Z,100658.13
2019-06-08T08:24:28.056Z,100654.30
2019-06-08T08:27:02.072Z,100655.46
2019-06-08T08:29:31.356Z,100663.91
2019-06-08T08:32:01.791Z,100666.09
2019-06-08T08:34:29.959Z,100666.57
2019-06-08T08:37:04.009Z,100661.50
2019-06-08T08:39:29.101Z,100662.25
2019-06-08T08:42:04.367Z,100685.50
2019-06-08T08:44:29.463Z,100676.23
2019-06-08T08:47:00.551Z,100677.70
2019-06-08T08:49:28.511Z,100687.66
2019-06-08T08:52:00.047Z,100686.58
2019-06-08T08:54:29.776Z,100696.44
2019-06-08T08:57:04.516Z,100701.41
2019-06-08T08:59:32.039Z,100693.11
2019-06-08T09:02:02.788Z,100687.13
2019-06-08T09:04:31.348Z,100697.91
2019-06-08T09:07:05.546Z,100699.46
2019-06-08T09:09:31.711Z,100696.94
2019-06-08T09:12:04.245Z,100700.73
2019-06-08T09:14:31.852Z,100699.25
2019-06-08T09:17:02.176Z,100711.09
2019-06-08T09:19:30.902Z,100715.25
2019-06-08T09:22:02.298Z,100715.38
2019-06-08T09:24:29.975Z,100718.95
2019-06-08T09:27:00.956Z,100707.44
2019-06-08T09:29:29.369Z,100723.36
2019-06-08T09:32:00.448Z,100728.24
2019-06-08T09:34:28.673Z,100720.67
2019-06-08T09:37:00.120Z,100726.38
2019-06-08T09:39:28.665Z,100725.93
2019-06-08T09:42:00.453Z,100739.28
2019-06-08T09:44:28.194Z,100732.05
2019-06-08T09:47:02.775Z,100732.43
2019-06-08T09:49:28.865Z,100735.47
2019-06-08T09:52:00.404Z,100729.94
2019-06-08T09:54:29.070Z,100726.59
2019-06-08T09:57:00.944Z,100736.34
2019-06-08T09:59:28.588Z,100731.97
2019-06-08T10:02:05.080Z,100752.66
2019-06-08T10:04:29.185Z,100762.20
2019-06-08T10:07:00.163Z,100748.06
2019-06-08T10:09:28.849Z,100752.13
2019-06-08T10:11:59.576Z,100751.30
2019-06-08T10:14:29.506Z,100744.97
2019-06-08T10:17:00.591Z,100765.54
2019-06-08T10:19:28.658Z,100759.41
2019-06-08T10:21:58.782Z,100743.70
2019-06-08T10:24:27.451Z,100758.62
2019-06-08T10:26:57.176Z,100758.34
2019-06-08T10:29:26.087Z,100768.34
2019-06-08T10:31:55.176Z,100766.36
2019-06-08T10:34:27.327Z,100788.15
2019-06-08T10:37:00.723Z,100776.30
2019-06-08T10:39:28.340Z,100781.82
2019-06-08T10:41:59.851Z,100792.36
2019-06-08T10:44:28.347Z,100791.30
2019-06-08T10:47:00.533Z,100798.34
2019-06-08T10:49:28.602Z,100813.06
2019-06-08T10:52:01.555Z,100797.58
2019-06-08T10:54:29.344Z,100800.40
2019-06-08T10:57:00.372Z,100806.64
2019-06-08T10:59:28.994Z,100799.17
2019-06-08T11:02:01.021Z,100799.05
2019-06-08T11:04:29.428Z,100792.87
2019-06-08T11:07:05.655Z,100801.88
2019-06-08T11:09:33.129Z,100804.66
2019-06-08T11:12:03.367Z,100813.90
2019-06-08T11:14:32.741Z,100807.93
2019-06-08T11:17:02.625Z,100821.84
2019-06-08T11:19:31.713Z,100821.19
2019-06-08T11:22:04.999Z,100832.63
2019-06-08T11:24:33.126Z,100839.45
2019-06-08T11:27:03.411Z,100847.63
2019-06-08T11:29:38.366Z,100846.05
2019-06-08T11:32:09.295Z,100858.05
2019-06-08T11:34:37.675Z,100854.95
2019-06-08T11:37:13.090Z,100866.07
2019-06-08T11:39:42.515Z,100865.09
2019-06-08T11:42:19.103Z,100864.83
2019-06-08T11:44:50.884Z,100866.05
2019-06-08T11:47:20.609Z,100865.52
2019-06-08T11:49:50.062Z,100865.38
2019-06-08T11:52:18.814Z,100861.86
2019-06-08T11:54:48.456Z,100877.59
2019-06-08T11:57:17.795Z,100881.21
2019-06-08T11:59:48.480Z,100874.08
2019-06-08T12:02:20.320Z,100886.09
2019-06-08T12:04:52.229Z,100888.27
2019-06-08T12:07:22.390Z,100894.26
2019-06-08T12:09:51.085Z,100888.52
2019-06-08T12:12:21.321Z,100886.76
2019-06-08T12:14:51.928Z,100890.96
2019-06-08T12:17:24.335Z,100895.30
2019-06-08T12:19:54.592Z,100901.83
2019-06-08T12:22:23.485Z,100895.55
2019-06-08T12:24:54.733Z,100915.16
2019-06-08T12:27:33.093Z,100908.02
2019-06-08T12:29:55.616Z,100911.31
2019-06-08T12:32:24.555Z,100914.84
2019-06-08T12:34:54.738Z,100907.80
2019-06-08T12:37:24.967Z,100921.67
2019-06-08T12:39:53.628Z,100931.32
2019-06-08T12:42:24.984Z,100940.75
2019-06-08T12:44:53.959Z,100935.01
2019-06-08T12:47:26.674Z,100930.31
2019-06-08T12:49:53.257Z,100941.89
2019-06-08T12:52:22.448Z,100935.88
2019-06-08T12:55:00.085Z,100935.75
2019-06-08T12:57:23.008Z,100927.76
2019-06-08T12:59:52.857Z,100919.56
2019-06-08T13:02:28.940Z,100917.47
2019-06-08T13:04:58.131Z,100915.72
2019-06-08T13:07:28.156Z,100916.80
2019-06-08T13:09:58.999Z,100909.59
2019-06-08T13:12:28.903Z,100902.86
2019-06-08T13:14:58.295Z,100911.70
2019-06-08T13:17:28.016Z,100900.92
2019-06-08T13:19:58.156Z,100897.80
2019-06-08T13:22:29.041Z,100892.92
2019-06-08T13:25:10.271Z,100893.62
2019-06-08T13:27:28.234Z,100897.87
2019-06-08T13:29:57.754Z,100889.66
2019-06-08T13:32:29.401Z,100902.38
2019-06-08T13:34:58.617Z,100922.23
2019-06-08T13:37:27.646Z,100919.98
2019-06-08T13:39:59.035Z,100906.59
2019-06-08T13:42:27.982Z,100902.30
2019-06-08T13:44:59.019Z,100907.63
2019-06-08T13:47:28.646Z,100907.47
2019-06-08T13:49:58.777Z,100894.20
2019-06-08T13:52:28.805Z,100898.86
2019-06-08T13:54:58.346Z,100902.30
2019-06-08T13:57:27.208Z,100902.72
2019-06-08T13:59:57.852Z,100906.45
2019-06-08T14:02:29.083Z,100894.64
2019-06-08T14:04:59.115Z,100905.03
2019-06-08T14:07:34.290Z,100897.72
2019-06-08T14:10:00.783Z,100898.39
2019-06-08T14:12:30.938Z,100915.36
2019-06-08T14:15:03.759Z,100886.09
2019-06-08T14:17:32.442Z,100912.72
2019-06-08T14:20:02.667Z,100917.97
2019-06-08T14:22:31.653Z,100906.83
2019-06-08T14:25:00.594Z,100914.55
2019-06-08T14:27:33.546Z,100906.80
2019-06-08T14:30:02.654Z,100913.84
2019-06-08T14:32:31.492Z,100903.69
2019-06-08T14:35:02.829Z,100907.03
2019-06-08T14:37:30.616Z,100907.91
2019-06-08T14:39:59.318Z,100900.86
2019-06-08T14:42:31.717Z,100905.05
2019-06-08T14:45:02.111Z,100930.47
2019-06-08T14:47:32.565Z,100923.00
2019-06-08T14:50:02.661Z,100929.94
2019-06-08T14:52:32.089Z,100924.08
2019-06-08T14:55:00.746Z,100910.02
2019-06-08T14:57:30.979Z,100924.53
2019-06-08T15:00:08.419Z,100933.52
2019-06-08T15:02:37.921Z,100916.95
2019-06-08T15:05:08.212Z,100921.94
2019-06-08T15:07:38.856Z,100928.28
2019-06-08T15:10:10.093Z,100929.85
2019-06-08T15:12:38.993Z,100936.89
2019-06-08T15:15:10.862Z,100933.40
2019-06-08T15:17:38.125Z,100933.41
2019-06-08T15:20:08.857Z,100938.44
2019-06-08T15:22:38.946Z,100955.66
2019-06-08T15:25:11.007Z,100942.17
2019-06-08T15:27:38.951Z,100946.34
2019-06-08T15:30:10.290Z,100944.16
2019-06-08T15:32:38.982Z,100954.47
2019-06-08T15:35:13.608Z,100959.73
2019-06-08T15:37:49.085Z,100956.89
2019-06-08T15:40:17.877Z,100964.03
2019-06-08T15:42:47.970Z,100979.91
2019-06-08T15:45:18.285Z,100984.30
2019-06-08T15:47:53.024Z,100979.45
2019-06-08T15:50:24.219Z,100982.98
2019-06-08T15:52:52.848Z,100995.23
2019-06-08T15:55:22.860Z,101002.94
2019-06-08T15:57:52.261Z,100992.83
2019-06-08T16:00:24.803Z,101008.25
2019-06-08T16:02:58.497Z,101005.67
2019-06-08T16:05:27.816Z,101014.85
2019-06-08T16:07:56.823Z,101009.22
2019-06-08T16:10:28.384Z,101031.62
2019-06-08T16:12:57.010Z,101044.00
2019-06-08T16:15:26.863Z,101031.88
2019-06-08T16:17:55.629Z,101040.76
2019-06-08T16:20:27.534Z,101046.97
2019-06-08T16:22:57.594Z,101057.97
2019-06-08T16:25:29.739Z,101066.48
2019-06-08T16:28:02.859Z,101052.91
2019-06-08T16:30:33.152Z,101061.66
2019-06-08T16:33:01.788Z,101058.20
2019-06-08T16:35:31.768Z,101067.48
2019-06-08T16:38:00.970Z,101066.36
2019-06-08T16:40:34.011Z,101080.95
2019-06-08T16:43:03.047Z,101078.45
2019-06-08T16:45:33.165Z,101083.97
2019-06-08T16:48:03.386Z,101099.74
2019-06-08T16:50:32.268Z,101092.77
2019-06-08T16:53:02.779Z,101101.48
2019-06-08T16:55:32.106Z,101085.52
2019-06-08T16:58:02.015Z,101084.91
2019-06-08T17:00:36.530Z,101089.78
2019-06-08T17:03:02.775Z,101101.44
2019-06-08T17:05:31.427Z,101095.69
2019-06-08T17:08:00.365Z,101092.64
2019-06-08T17:10:29.054Z,101106.95
2019-06-08T17:12:57.961Z,101115.99
2019-06-08T17:15:28.036Z,101112.19
2019-06-08T17:17:57.686Z,101120.50
2019-06-08T17:20:26.519Z,101114.70
2019-06-08T17:22:55.424Z,101139.99
2019-06-08T17:25:24.410Z,101127.80
2019-06-08T17:27:55.971Z,101136.61
2019-06-08T17:30:27.321Z,101117.47
2019-06-08T17:32:58.967Z,101110.28
2019-06-08T17:35:27.663Z,101105.92
2019-06-08T17:37:56.375Z,101118.50
2019-06-08T17:40:25.264Z,101108.10
2019-06-08T17:42:55.296Z,101105.98
2019-06-08T17:45:24.450Z,101106.05
2019-06-08T17:47:53.484Z,101106.88
2019-06-08T17:50:22.202Z,101109.59
2019-06-08T17:52:52.128Z,101100.05
2019-06-08T17:55:24.908Z,101104.08
2019-06-08T17:57:55.204Z,101114.59
2019-06-08T18:00:25.113Z,101117.43
2019-06-08T18:02:57.727Z,101125.07
2019-06-08T18:05:28.162Z,101137.23
2019-06-08T18:07:57.900Z,101130.72
2019-06-08T18:10:27.813Z,101137.84
2019-06-08T18:12:58.897Z,101145.47
2019-06-08T18:15:28.390Z,101135.92
2019-06-08T18:17:58.528Z,101150.59
2019-06-08T18:20:28.278Z,101155.98
2019-06-08T18:22:57.858Z,101148.05
2019-06-08T18:25:28.146Z,101158.66
2019-06-08T18:28:06.650Z,101159.19
2019-06-08T18:30:27.751Z,101155.11
2019-06-08T18:32:58.289Z,101174.58
2019-06-08T18:35:27.854Z,101170.93
2019-06-08T18:37:57.875Z,101155.02
2019-06-08T18:40:27.256Z,101157.38
2019-06-08T18:42:58.170Z,101138.59
2019-06-08T18:45:29.687Z,101145.80
2019-06-08T18:47:58.425Z,101154.33
2019-06-08T18:50:28.437Z,101155.23
2019-06-08T18:52:57.978Z,101160.92
2019-06-08T18:55:28.035Z,101165.74
2019-06-08T18:57:57.775Z,101157.52
2019-06-08T19:00:39.761Z,101155.58
2019-06-08T19:03:09.788Z,101162.47
2019-06-08T19:05:45.233Z,101161.83
2019-06-08T19:08:13.141Z,101162.70
2019-06-08T19:10:42.729Z,101157.61
2019-06-08T19:13:12.538Z,101159.67
2019-06-08T19:15:44.478Z,101170.24
2019-06-08T19:18:13.415Z,101176.59
2019-06-08T19:20:47.016Z,101177.92
2019-06-08T19:23:14.665Z,101175.87
2019-06-08T19:25:49.590Z,101181.31
2019-06-08T19:28:35.265Z,101187.41
2019-06-08T19:30:51.642Z,101196.41
2019-06-08T19:33:20.784Z,101197.28
2019-06-08T19:35:53.646Z,101202.07
2019-06-08T19:38:20.228Z,101199.87
2019-06-08T19:40:50.705Z,101208.14
2019-06-08T19:43:22.534Z,101206.87
2019-06-08T19:45:52.107Z,101216.79
2019-06-08T19:48:21.390Z,101224.25
2019-06-08T19:50:54.229Z,101231.33
2019-06-08T19:53:21.908Z,101231.38
2019-06-08T19:55:53.943Z,101226.84
2019-06-08T19:58:21.442Z,101243.95
2019-06-08T20:00:54.892Z,101239.45
2019-06-08T20:03:23.686Z,101239.58
2019-06-08T20:05:53.579Z,101250.66
2019-06-08T20:08:22.311Z,101244.77
2019-06-08T20:10:52.146Z,101258.17
2019-06-08T20:13:23.065Z,101254.14
2019-06-08T20:15:57.133Z,101255.30
2019-06-08T20:18:22.687Z,101261.41
2019-06-08T20:20:54.510Z,101262.45
2019-06-08T20:23:23.409Z,101263.61
2019-06-08T20:25:53.448Z,101269.41
2019-06-08T20:28:28.394Z,101266.20
2019-06-08T20:30:57.916Z,101270.26
2019-06-08T20:33:27.403Z,101274.72
2019-06-08T20:35:58.565Z,101279.16
2019-06-08T20:38:38.244Z,101278.95
2019-06-08T20:40:57.973Z,101281.94
2019-06-08T20:43:38.102Z,101284.72
2019-06-08T20:46:08.137Z,101282.87
2019-06-08T20:48:44.236Z,101289.80
2019-06-08T20:51:19.619Z,101289.36
2019-06-08T20:53:52.479Z,101294.84
2019-06-08T20:56:21.360Z,101289.63
2019-06-08T20:58:54.026Z,101299.11
2019-06-08T21:01:23.519Z,101298.09
2019-06-08T21:03:52.798Z,101299.00
2019-06-08T21:06:21.456Z,101310.13
2019-06-08T21:08:51.616Z,101305.27
2019-06-08T21:11:20.842Z,101310.63
2019-06-08T21:13:52.173Z,101310.48
2019-06-08T21:16:20.926Z,101313.78
2019-06-08T21:18:50.820Z,101314.68
2019-06-08T21:21:22.051Z,101316.86
2019-06-08T21:23:54.027Z,101314.28
2019-06-08T21:26:21.593Z,101320.26
2019-06-08T21:28:52.804Z,101315.73
2019-06-08T21:31:28.435Z,101317.67
2019-06-08T21:34:00.421Z,101321.66
2019-06-08T21:36:27.123Z,101319.36
2019-06-08T21:39:01.926Z,101325.16
2019-06-08T21:41:29.841Z,101324.16
2019-06-08T21:44:01.688Z,101323.64
2019-06-08T21:46:30.716Z,101325.37
2019-06-08T21:49:00.591Z,101326.19
2019-06-08T21:51:29.652Z,101331.73
2019-06-08T21:53:59.251Z,101326.07
2019-06-08T21:56:29.016Z,101336.56
2019-06-08T21:59:00.914Z,101331.80
2019-06-08T22:01:30.379Z,101330.03
2019-06-08T22:04:02.351Z,101334.59
2019-06-08T22:06:31.454Z,101334.48
2019-06-08T22:09:02.865Z,101336.27
2019-06-08T22:11:37.728Z,101344.39
2019-06-08T22:14:07.342Z,101343.31
2019-06-08T22:16:42.528Z,101341.23
2019-06-08T22:19:11.172Z,101345.97
2019-06-08T22:21:39.947Z,101343.93
2019-06-08T22:24:08.642Z,101343.52
2019-06-08T22:26:38.876Z,101345.27
2019-06-08T22:29:07.998Z,101340.38
2019-06-08T22:31:38.271Z,101344.45
2019-06-08T22:34:07.503Z,101344.03
2019-06-08T22:36:37.198Z,101341.86
2019-06-08T22:39:08.060Z,101340.64
2019-06-08T22:41:37.418Z,101345.36
2019-06-08T22:44:08.493Z,101344.84
2019-06-08T22:46:38.833Z,101346.61
2019-06-08T22:49:10.565Z,101346.48
2019-06-08T22:51:40.690Z,101350.59
2019-06-08T22:54:10.722Z,101350.27
2019-06-08T22:56:40.537Z,101348.42
2019-06-08T22:59:10.550Z,101350.89
2019-06-08T23:01:39.960Z,101350.38
2019-06-08T23:04:11.415Z,101352.31
2019-06-08T23:06:42.068Z,101353.65
2019-06-08T23:09:11.048Z,101350.62
2019-06-08T23:11:42.464Z,101352.80
2019-06-08T23:14:14.319Z,101363.78
2019-06-08T23:16:43.272Z,101363.66
2019-06-08T23:19:17.455Z,101373.01
2019-06-08T23:21:47.602Z,101366.77
2019-06-08T23:24:18.140Z,101366.72
2019-06-08T23:26:49.984Z,101365.30
2019-06-08T23:29:20.685Z,101374.59
2019-06-08T23:31:53.357Z,101375.47
2019-06-08T23:34:27.532Z,101371.75
2019-06-08T23:37:00.879Z,101374.50
2019-06-08T23:39:28.491Z,101377.36
2019-06-08T23:41:57.598Z,101375.92
2019-06-08T23:44:28.329Z,101379.23
2019-06-08T23:46:58.548Z,101384.59
2019-06-08T23:49:27.824Z,101382.54
2019-06-08T23:52:02.673Z,101380.11
2019-06-08T23:54:32.820Z,101378.02
2019-06-08T23:57:02.874Z,101382.29
2019-06-08T23:59:32.939Z,101378.32
